Time;durP1;ratioP1;P1;durP2;ratioP2;P2;SDS_P1;SDS_P2;PMS_P1;PMS_P2;Temp;Humidity;BMP_temperature;BMP_pressure;BME280_temperature;BME280_humidity;BME280_pressure;Samples;Min_cycle;Max_cycle;Signal;HPM_P1;HPM_P2
2021/05/06 00:01:21;;;;;;;3.88;1.80;;;;;;;;;;6944994;28;20116;-90
2021/05/06 00:32:59;;;;;;;3.72;2.03;;;;;;;;;;6935516;28;20475;-90
2021/05/06 00:36:19;;;;;;;4.55;2.05;;;;;;;;;;6919917;28;20033;-90
2021/05/06 00:39:45;;;;;;;4.40;1.98;;;;;;;;;;6936004;28;20103;-90
2021/05/06 01:04:41;;;;;;;4.72;1.63;;;;;;;;;;6930902;28;20033;-93
2021/05/06 01:08:10;;;;;;;5.22;1.77;;;;;;;;;;6918585;28;20033;-92
2021/05/06 01:11:40;;;;;;;3.10;1.65;;;;;;;;;;6934174;28;20036;-92
2021/05/06 01:15:01;;;;;;;5.05;1.77;;;;;;;;;;6949799;28;20356;-91
2021/05/06 01:18:22;;;;;;;2.50;1.67;;;;;;;;;;6949617;28;20491;-92
2021/05/06 01:21:42;;;;;;;3.40;1.63;;;;;;;;;;6915913;28;20029;-92
2021/05/06 01:25:04;;;;;;;5.93;1.60;;;;;;;;;;6931724;28;20041;-90
2021/05/06 01:28:35;;;;;;;6.28;1.75;;;;;;;;;;6931786;28;20038;-91
2021/05/06 01:42:21;;;;;;;3.03;1.50;;;;;;;;;;6932811;28;20467;-93
2021/05/06 02:00:36;;;;;;;2.17;1.67;;;;;;;;;;6934134;28;20042;-91
2021/05/06 02:03:57;;;;;;;4.50;1.58;;;;;;;;;;6946079;28;20467;-92
2021/05/06 02:07:17;;;;;;;3.28;1.50;;;;;;;;;;6929902;28;20068;-92
2021/05/06 02:10:38;;;;;;;1.85;1.60;;;;;;;;;;6914652;28;20037;-92
2021/05/06 02:13:58;;;;;;;1.50;1.40;;;;;;;;;;6934969;28;20057;-90
2021/05/06 02:17:19;;;;;;;1.90;1.63;;;;;;;;;;6934908;28;20033;-91
2021/05/06 02:20:40;;;;;;;2.42;1.50;;;;;;;;;;6931334;28;20502;-92
2021/05/06 02:24:01;;;;;;;2.35;1.50;;;;;;;;;;6930745;28;20030;-91
2021/05/06 02:27:21;;;;;;;4.25;1.40;;;;;;;;;;6930751;28;20025;-91
2021/05/06 02:30:42;;;;;;;3.60;1.50;;;;;;;;;;6948043;28;20533;-89
2021/05/06 02:34:03;;;;;;;3.15;1.40;;;;;;;;;;6948333;28;20033;-96
2021/05/06 02:37:23;;;;;;;2.35;1.50;;;;;;;;;;6933269;28;20115;-94
2021/05/06 02:40:44;;;;;;;4.03;1.60;;;;;;;;;;6913552;28;20395;-93
2021/05/06 02:44:05;;;;;;;4.78;1.90;;;;;;;;;;6929937;28;20475;-93
2021/05/06 02:47:26;;;;;;;1.45;1.35;;;;;;;;;;6930111;28;20025;-92
2021/05/06 02:50:52;;;;;;;4.30;1.40;;;;;;;;;;6930459;28;20383;-92
2021/05/06 02:54:13;;;;;;;2.63;1.50;;;;;;;;;;6946304;28;20474;-91
2021/05/06 02:57:48;;;;;;;3.47;1.17;;;;;;;;;;6947622;28;20032;-91
2021/05/06 03:04:48;;;;;;;2.15;1.50;;;;;;;;;;6932113;28;20033;-90
2021/05/06 03:08:17;;;;;;;2.38;1.40;;;;;;;;;;6945919;28;20116;-91
2021/05/06 03:11:55;;;;;;;4.70;1.48;;;;;;;;;;6914271;28;20144;-91
2021/05/06 03:22:48;;;;;;;5.82;1.48;;;;;;;;;;6946710;28;20527;-91
2021/05/06 03:26:11;;;;;;;3.03;1.55;;;;;;;;;;6945911;28;20037;-91
2021/05/06 03:29:48;;;;;;;3.53;1.67;;;;;;;;;;6929471;28;20064;-92
2021/05/06 03:44:32;;;;;;;2.20;1.25;;;;;;;;;;6946586;28;20037;-96
2021/05/06 04:38:36;;;;;;;1.42;1.27;;;;;;;;;;6938238;28;20041;-91
2021/05/06 04:42:13;;;;;;;1.33;1.20;;;;;;;;;;6931612;28;20060;-90
2021/05/06 04:53:31;;;;;;;2.15;0.93;;;;;;;;;;6931761;28;20041;-88
2021/05/06 05:03:58;;;;;;;;;;;;;;;;;;6936539;28;20025;-94
2021/05/06 05:07:28;;;;;;;1.25;1.00;;;;;;;;;;6915892;28;19963;-89
2021/05/06 05:15:01;;;;;;;1.60;1.17;;;;;;;;;;6935851;28;19935;-88
2021/05/06 05:25:15;;;;;;;2.08;1.13;;;;;;;;;;6946890;28;20031;-89
2021/05/06 05:28:37;;;;;;;1.52;1.00;;;;;;;;;;6932298;28;20049;-89
2021/05/06 05:31:58;;;;;;;2.83;0.93;;;;;;;;;;6920162;28;20036;-89
2021/05/06 05:46:45;;;;;;;4.65;2.38;;;;;;;;;;6948358;28;20037;-89
2021/05/06 05:56:24;;;;;;;2.00;1.20;;;;;;;;;;6948499;28;20064;-91
2021/05/06 05:59:44;;;;;;;1.23;1.13;;;;;;;;;;6931103;28;20040;-89
2021/05/06 06:03:04;;;;;;;1.00;1.00;;;;;;;;;;6946673;28;20057;-95
2021/05/06 06:06:25;;;;;;;1.38;1.10;;;;;;;;;;6911555;28;20103;-89
2021/05/06 06:09:46;;;;;;;1.48;1.17;;;;;;;;;;6918234;28;20083;-87
2021/05/06 06:13:06;;;;;;;1.23;1.02;;;;;;;;;;6947306;28;20038;-88
2021/05/06 06:16:29;;;;;;;1.92;1.00;;;;;;;;;;6947312;28;20057;-89
2021/05/06 06:19:51;;;;;;;1.63;1.20;;;;;;;;;;6929616;28;20040;-95
2021/05/06 06:23:11;;;;;;;6.60;1.08;;;;;;;;;;6929334;28;20387;-86
2021/05/06 06:26:36;;;;;;;2.05;1.05;;;;;;;;;;6943952;28;20459;-86
2021/05/06 06:29:57;;;;;;;0.90;0.90;;;;;;;;;;6946455;28;20502;-84
2021/05/06 06:33:18;;;;;;;3.13;0.95;;;;;;;;;;6945820;28;20041;-84
2021/05/06 06:36:39;;;;;;;5.97;1.20;;;;;;;;;;6947266;28;20041;-84
2021/05/06 06:39:59;;;;;;;2.50;1.00;;;;;;;;;;6946552;28;20519;-87
2021/05/06 06:43:20;;;;;;;1.70;1.00;;;;;;;;;;6946409;28;20044;-86
2021/05/06 06:46:41;;;;;;;2.67;1.20;;;;;;;;;;6947104;28;20850;-86
2021/05/06 06:50:01;;;;;;;1.00;0.85;;;;;;;;;;6925872;28;20037;-89
2021/05/06 06:53:21;;;;;;;1.58;0.98;;;;;;;;;;6946390;28;20044;-89
2021/05/06 06:56:42;;;;;;;1.13;0.95;;;;;;;;;;6937570;28;20029;-87
2021/05/06 07:00:04;;;;;;;4.05;1.10;;;;;;;;;;6928364;28;20060;-88
2021/05/06 07:03:25;;;;;;;3.17;1.00;;;;;;;;;;6944989;28;20053;-88
2021/05/06 07:06:45;;;;;;;3.55;1.00;;;;;;;;;;6925638;28;20392;-92
2021/05/06 07:10:06;;;;;;;3.40;1.08;;;;;;;;;;6945130;28;20420;-84
2021/05/06 07:13:27;;;;;;;12.98;1.75;;;;;;;;;;6939576;28;20064;-83
2021/05/06 07:16:48;;;;;;;4.70;1.20;;;;;;;;;;6945458;28;20033;-86
2021/05/06 07:20:08;;;;;;;35.33;2.83;;;;;;;;;;6945943;28;20430;-86
2021/05/06 07:23:30;;;;;;;7.15;0.82;;;;;;;;;;6945069;28;20029;-86
2021/05/06 07:26:51;;;;;;;8.77;1.10;;;;;;;;;;6942443;28;20036;-86
2021/05/06 07:30:12;;;;;;;5.65;1.00;;;;;;;;;;6943725;28;20037;-86
2021/05/06 07:33:33;;;;;;;3.75;1.13;;;;;;;;;;6941972;28;20490;-88
2021/05/06 07:36:53;;;;;;;3.33;1.33;;;;;;;;;;6925064;28;20045;-89
2021/05/06 07:40:14;;;;;;;3.38;1.00;;;;;;;;;;6942593;28;20041;-89
2021/05/06 07:43:34;;;;;;;3.00;0.80;;;;;;;;;;6942822;28;20026;-87
2021/05/06 07:47:09;;;;;;;4.20;1.10;;;;;;;;;;6942349;28;20116;-88
2021/05/06 07:50:29;;;;;;;3.65;1.00;;;;;;;;;;6943115;28;20112;-88
2021/05/06 07:53:52;;;;;;;8.32;1.20;;;;;;;;;;6941320;28;20084;-85
2021/05/06 07:57:13;;;;;;;3.05;1.00;;;;;;;;;;6941074;28;20049;-88
2021/05/06 08:00:35;;;;;;;6.22;1.00;;;;;;;;;;6937707;28;20104;-88
2021/05/06 08:03:57;;;;;;;4.85;0.77;;;;;;;;;;6941027;28;20397;-88
2021/05/06 08:07:17;;;;;;;2.00;0.93;;;;;;;;;;6941908;28;20379;-88
2021/05/06 08:10:38;;;;;;;2.40;0.90;;;;;;;;;;6942616;28;20367;-85
2021/05/06 08:13:59;;;;;;;3.72;0.90;;;;;;;;;;6936615;28;20108;-86
2021/05/06 08:17:20;;;;;;;2.35;1.10;;;;;;;;;;6943108;28;20497;-85
2021/05/06 08:20:41;;;;;;;0.80;0.77;;;;;;;;;;6944117;28;20561;-86
2021/05/06 08:24:02;;;;;;;2.33;0.90;;;;;;;;;;6942386;28;20029;-86
2021/05/06 08:27:23;;;;;;;5.32;1.30;;;;;;;;;;6941525;28;20037;-85
2021/05/06 08:30:44;;;;;;;5.70;1.42;;;;;;;;;;6940154;28;20045;-85
2021/05/06 08:34:04;;;;;;;2.30;0.95;;;;;;;;;;6940748;28;20467;-86
2021/05/06 08:37:24;;;;;;;1.35;0.80;;;;;;;;;;6941959;28;20374;-86
2021/05/06 08:40:46;;;;;;;3.30;0.75;;;;;;;;;;6941982;28;20108;-86
2021/05/06 08:44:09;;;;;;;0.77;0.70;;;;;;;;;;6941926;28;20095;-87
2021/05/06 08:47:30;;;;;;;1.85;1.08;;;;;;;;;;6947221;28;20026;-88
2021/05/06 08:50:50;;;;;;;3.42;0.90;;;;;;;;;;6947447;28;20120;-84
2021/05/06 08:54:11;;;;;;;4.85;0.98;;;;;;;;;;6938655;28;20163;-86
2021/05/06 08:57:31;;;;;;;1.00;0.73;;;;;;;;;;6947070;28;20080;-85
2021/05/06 09:00:52;;;;;;;5.20;0.95;;;;;;;;;;6940588;28;20025;-86
2021/05/06 09:04:12;;;;;;;2.35;1.00;;;;;;;;;;6947206;28;20025;-85
2021/05/06 09:07:33;;;;;;;3.28;0.73;;;;;;;;;;6934749;28;20450;-86
2021/05/06 09:10:58;;;;;;;2.30;1.02;;;;;;;;;;6946381;28;20083;-86
2021/05/06 09:14:18;;;;;;;4.22;1.33;;;;;;;;;;6945828;28;20487;-86
2021/05/06 09:17:39;;;;;;;1.73;0.70;;;;;;;;;;6945800;28;20079;-86
2021/05/06 09:20:59;;;;;;;1.70;0.82;;;;;;;;;;6946349;28;20113;-86
2021/05/06 09:24:22;;;;;;;1.90;0.90;;;;;;;;;;6945711;28;20041;-87
2021/05/06 09:27:43;;;;;;;5.63;0.90;;;;;;;;;;6945431;28;20083;-88
2021/05/06 09:31:06;;;;;;;5.22;1.00;;;;;;;;;;6945268;28;20046;-88
2021/05/06 09:34:35;;;;;;;1.42;0.85;;;;;;;;;;6936242;28;20487;-88
2021/05/06 09:37:55;;;;;;;1.95;0.88;;;;;;;;;;6946275;28;20037;-88
2021/05/06 09:41:30;;;;;;;3.67;0.98;;;;;;;;;;6945429;28;20048;-87
2021/05/06 09:44:52;;;;;;;7.82;0.82;;;;;;;;;;6946029;28;20087;-88
2021/05/06 09:48:16;;;;;;;1.77;0.93;;;;;;;;;;6939721;28;20064;-90
2021/05/06 09:52:05;;;;;;;4.00;1.23;;;;;;;;;;6946054;28;20026;-89
2021/05/06 09:55:33;;;;;;;3.72;1.05;;;;;;;;;;6926781;28;20547;-88
2021/05/06 09:58:57;;;;;;;2.92;0.98;;;;;;;;;;6945607;28;20032;-89
2021/05/06 10:02:18;;;;;;;1.05;0.68;;;;;;;;;;6937811;28;20033;-88
2021/05/06 10:05:39;;;;;;;3.72;1.05;;;;;;;;;;6923902;28;20060;-87
2021/05/06 10:09:02;;;;;;;3.03;1.10;;;;;;;;;;6944658;28;20036;-88
2021/05/06 10:12:25;;;;;;;2.83;0.82;;;;;;;;;;6945963;28;20091;-87
2021/05/06 10:15:46;;;;;;;2.22;0.90;;;;;;;;;;6945635;28;20041;-88
2021/05/06 10:19:06;;;;;;;5.85;0.75;;;;;;;;;;6945705;28;20168;-87
2021/05/06 10:22:29;;;;;;;1.65;0.90;;;;;;;;;;6927799;28;20104;-88
2021/05/06 10:25:52;;;;;;;2.97;1.20;;;;;;;;;;6942682;28;20041;-87
2021/05/06 10:29:16;;;;;;;5.88;0.90;;;;;;;;;;6943763;28;20531;-87
2021/05/06 10:32:37;;;;;;;2.28;0.90;;;;;;;;;;6941928;28;20036;-88
2021/05/06 10:35:58;;;;;;;2.88;0.90;;;;;;;;;;6931627;28;20025;-88
2021/05/06 10:39:18;;;;;;;2.28;1.15;;;;;;;;;;6923390;28;20044;-88
2021/05/06 10:42:39;;;;;;;2.15;0.80;;;;;;;;;;6925004;28;20021;-88
2021/05/06 10:46:02;;;;;;;1.92;0.82;;;;;;;;;;6924508;28;20116;-88
2021/05/06 10:49:24;;;;;;;0.80;0.75;;;;;;;;;;6918594;28;20065;-88
2021/05/06 10:52:51;;;;;;;2.42;1.00;;;;;;;;;;6917834;28;20064;-88
2021/05/06 10:56:17;;;;;;;3.28;0.90;;;;;;;;;;6918081;28;20036;-87
2021/05/06 10:59:41;;;;;;;2.72;0.80;;;;;;;;;;6942753;28;20032;-87
2021/05/06 11:03:03;;;;;;;2.95;1.25;;;;;;;;;;6942298;28;20410;-88
2021/05/06 11:06:38;;;;;;;1.67;0.98;;;;;;;;;;6944014;28;20125;-86
2021/05/06 11:10:01;;;;;;;1.85;1.00;;;;;;;;;;6943098;28;20039;-87
2021/05/06 11:13:25;;;;;;;2.83;0.80;;;;;;;;;;6944147;28;20352;-87
2021/05/06 11:17:18;;;;;;;2.03;1.17;;;;;;;;;;6944500;28;20037;-84
2021/05/06 11:20:44;;;;;;;2.17;0.90;;;;;;;;;;6944668;28;20099;-83
2021/05/06 11:24:17;;;;;;;2.95;0.85;;;;;;;;;;6943844;28;20072;-83
2021/05/06 11:27:38;;;;;;;1.60;0.80;;;;;;;;;;6931434;28;20207;-85
2021/05/06 11:30:59;;;;;;;2.97;1.10;;;;;;;;;;6944184;28;20122;-85
2021/05/06 11:34:40;;;;;;;2.05;0.82;;;;;;;;;;6928321;28;20132;-84
2021/05/06 11:38:00;;;;;;;2.92;1.02;;;;;;;;;;6933641;28;20029;-84
2021/05/06 11:41:33;;;;;;;1.15;0.90;;;;;;;;;;6906334;28;20050;-84
2021/05/06 11:45:10;;;;;;;2.42;1.08;;;;;;;;;;6915525;28;20124;-84
2021/05/06 11:48:44;;;;;;;2.30;0.98;;;;;;;;;;6925704;28;20040;-85
2021/05/06 11:52:05;;;;;;;3.58;1.00;;;;;;;;;;6925459;28;20406;-85
2021/05/06 11:55:45;;;;;;;2.58;1.20;;;;;;;;;;6927333;28;20492;-85
2021/05/06 11:59:28;;;;;;;5.45;0.93;;;;;;;;;;6939252;28;20425;-85
2021/05/06 12:03:03;;;;;;;4.95;1.08;;;;;;;;;;6942440;28;20037;-84
2021/05/06 12:06:31;;;;;;;3.83;0.98;;;;;;;;;;6943121;28;20391;-83
2021/05/06 12:09:52;;;;;;;4.10;1.10;;;;;;;;;;6943568;28;20389;-83
2021/05/06 12:13:12;;;;;;;2.75;1.10;;;;;;;;;;6942360;28;20471;-84
2021/05/06 12:16:35;;;;;;;4.65;1.42;;;;;;;;;;6942904;28;20112;-84
2021/05/06 12:19:58;;;;;;;1.20;0.80;;;;;;;;;;6943902;28;20029;-83
2021/05/06 12:23:19;;;;;;;7.20;1.00;;;;;;;;;;6948516;28;20055;-84
2021/05/06 12:26:41;;;;;;;3.40;1.02;;;;;;;;;;6930589;28;20390;-86
2021/05/06 12:30:02;;;;;;;2.50;0.95;;;;;;;;;;6966580;22;20055;-79
2021/05/06 12:33:30;;;;;;;10.10;1.23;;;;;;;;;;6947334;28;20029;-80
2021/05/06 12:36:58;;;;;;;2.50;1.10;;;;;;;;;;6930145;28;20037;-79
2021/05/06 12:40:18;;;;;;;2.10;1.10;;;;;;;;;;6947682;28;20037;-79
2021/05/06 12:43:50;;;;;;;4.57;1.10;;;;;;;;;;6930058;28;20171;-79
2021/05/06 12:47:28;;;;;;;2.10;0.95;;;;;;;;;;6924477;28;20065;-79
2021/05/06 12:50:49;;;;;;;1.83;1.13;;;;;;;;;;6929229;28;20029;-80
2021/05/06 12:54:15;;;;;;;2.42;1.00;;;;;;;;;;6947258;28;20032;-80
2021/05/06 12:57:35;;;;;;;3.42;1.13;;;;;;;;;;6948249;28;20053;-80
2021/05/06 13:00:55;;;;;;;4.70;1.13;;;;;;;;;;6946859;28;20029;-79
2021/05/06 13:04:16;;;;;;;3.83;0.90;;;;;;;;;;6944067;28;20506;-79
2021/05/06 13:07:52;;;;;;;6.95;1.05;;;;;;;;;;6939317;28;20371;-80
2021/05/06 13:11:15;;;;;;;8.60;0.98;;;;;;;;;;6940838;28;20026;-79
2021/05/06 13:14:42;;;;;;;5.07;1.20;;;;;;;;;;6945180;28;20026;-79
2021/05/06 13:18:09;;;;;;;12.00;1.65;;;;;;;;;;6945595;28;20037;-78
2021/05/06 13:21:30;;;;;;;28.30;2.33;;;;;;;;;;6946710;28;20144;-79
2021/05/06 13:24:52;;;;;;;90.32;4.53;;;;;;;;;;6946717;28;20026;-80
2021/05/06 13:28:32;;;;;;;56.10;4.22;;;;;;;;;;6946358;28;20063;-80
2021/05/06 13:31:53;;;;;;;35.88;3.40;;;;;;;;;;6931557;28;20095;-80
2021/05/06 13:35:16;;;;;;;54.85;4.38;;;;;;;;;;6947355;28;20036;-83
2021/05/06 13:38:59;;;;;;;32.50;2.22;;;;;;;;;;6928808;28;20478;-83
2021/05/06 13:42:20;;;;;;;30.02;2.65;;;;;;;;;;6946661;28;20037;-83
2021/05/06 13:45:40;;;;;;;35.42;3.25;;;;;;;;;;6928891;28;20021;-83
2021/05/06 13:49:01;;;;;;;35.67;3.78;;;;;;;;;;6946630;28;20117;-85
2021/05/06 13:52:24;;;;;;;18.15;1.92;;;;;;;;;;6929441;28;20045;-87
2021/05/06 13:55:45;;;;;;;20.23;2.20;;;;;;;;;;6912222;28;20107;-87
2021/05/06 13:59:05;;;;;;;23.45;2.17;;;;;;;;;;6928071;28;20030;-88
2021/05/06 14:02:29;;;;;;;12.32;1.65;;;;;;;;;;6911935;28;20371;-88
2021/05/06 14:05:49;;;;;;;17.40;2.42;;;;;;;;;;6911285;28;20056;-87
2021/05/06 14:09:17;;;;;;;26.65;2.15;;;;;;;;;;6909955;28;20383;-89
2021/05/06 14:12:38;;;;;;;7.35;1.60;;;;;;;;;;6911090;28;20486;-88
2021/05/06 14:15:59;;;;;;;4.05;1.13;;;;;;;;;;6911331;28;20026;-88
2021/05/06 14:19:20;;;;;;;13.07;1.40;;;;;;;;;;6907953;28;20460;-88
2021/05/06 14:22:40;;;;;;;5.60;1.40;;;;;;;;;;6910839;28;20033;-87
2021/05/06 14:26:01;;;;;;;4.63;1.30;;;;;;;;;;6901319;28;20447;-84
2021/05/06 14:29:22;;;;;;;6.55;1.50;;;;;;;;;;6910489;28;20053;-88
2021/05/06 14:32:42;;;;;;;3.35;1.00;;;;;;;;;;6910297;28;20117;-88
2021/05/06 14:36:07;;;;;;;5.53;1.35;;;;;;;;;;6904310;28;20151;-88
2021/05/06 14:39:27;;;;;;;17.75;1.73;;;;;;;;;;6910705;28;20410;-88
2021/05/06 14:42:48;;;;;;;5.63;1.08;;;;;;;;;;6906380;28;20589;-88
2021/05/06 14:46:08;;;;;;;6.53;1.20;;;;;;;;;;6916853;28;20068;-88
2021/05/06 14:49:28;;;;;;;7.05;1.52;;;;;;;;;;6926748;28;20052;-88
2021/05/06 14:52:53;;;;;;;3.70;1.10;;;;;;;;;;6926861;28;20057;-88
2021/05/06 14:56:14;;;;;;;4.43;1.45;;;;;;;;;;6910741;28;20036;-88
2021/05/06 14:59:34;;;;;;;8.00;1.38;;;;;;;;;;6907307;28;20037;-88
2021/05/06 15:02:55;;;;;;;4.20;1.23;;;;;;;;;;6926035;28;20018;-88
2021/05/06 15:06:15;;;;;;;6.72;1.48;;;;;;;;;;6930075;28;20025;-88
2021/05/06 15:09:36;;;;;;;5.93;1.15;;;;;;;;;;6909827;28;20112;-89
2021/05/06 15:12:57;;;;;;;5.93;1.35;;;;;;;;;;6906273;28;20116;-88
2021/05/06 15:16:17;;;;;;;1.98;1.10;;;;;;;;;;6909489;28;20025;-88
2021/05/06 15:19:38;;;;;;;4.55;1.10;;;;;;;;;;6909775;28;20092;-88
2021/05/06 15:22:58;;;;;;;3.38;1.20;;;;;;;;;;6908461;28;20110;-85
2021/05/06 15:26:19;;;;;;;7.00;1.50;;;;;;;;;;6939967;28;20148;-85
2021/05/06 15:29:40;;;;;;;3.90;1.27;;;;;;;;;;6944145;28;20049;-85
2021/05/06 15:33:01;;;;;;;6.55;1.15;;;;;;;;;;6943683;28;20064;-84
2021/05/06 15:36:23;;;;;;;3.45;1.27;;;;;;;;;;6949210;28;20034;-85
2021/05/06 15:39:43;;;;;;;4.82;1.10;;;;;;;;;;6908350;28;20031;-86
2021/05/06 15:43:04;;;;;;;5.18;1.60;;;;;;;;;;6925511;28;20022;-82
2021/05/06 15:46:24;;;;;;;4.25;1.13;;;;;;;;;;6941050;28;20116;-83
2021/05/06 15:49:45;;;;;;;4.10;0.85;;;;;;;;;;6941570;28;20025;-84
2021/05/06 15:53:06;;;;;;;5.15;1.40;;;;;;;;;;6942650;28;20379;-82
2021/05/06 15:56:26;;;;;;;6.05;1.10;;;;;;;;;;6933968;28;20029;-85
2021/05/06 15:59:47;;;;;;;1.75;0.90;;;;;;;;;;6924845;28;20032;-84
2021/05/06 16:03:11;;;;;;;3.45;1.27;;;;;;;;;;6943114;28;20418;-85
2021/05/06 16:06:31;;;;;;;2.20;1.00;;;;;;;;;;6950548;28;20025;-85
2021/05/06 16:09:52;;;;;;;6.85;1.00;;;;;;;;;;6937351;28;20036;-85
2021/05/06 16:13:12;;;;;;;5.10;1.15;;;;;;;;;;6943005;28;20455;-85
2021/05/06 16:16:33;;;;;;;3.47;1.15;;;;;;;;;;6942372;28;20035;-86
2021/05/06 16:19:54;;;;;;;4.75;1.08;;;;;;;;;;6942807;28;20071;-85
2021/05/06 16:23:14;;;;;;;3.08;0.95;;;;;;;;;;6938196;28;20029;-85
2021/05/06 16:26:35;;;;;;;2.90;0.98;;;;;;;;;;6942686;28;20422;-86
2021/05/06 16:29:55;;;;;;;3.50;1.25;;;;;;;;;;6942817;28;20045;-85
2021/05/06 16:33:15;;;;;;;5.43;1.50;;;;;;;;;;6941998;28;20390;-86
2021/05/06 16:36:43;;;;;;;3.15;1.13;;;;;;;;;;6940567;28;20048;-86
2021/05/06 16:44:26;;;;;;;1.98;1.20;;;;;;;;;;6926631;28;20030;-86
2021/05/06 16:47:30;;;;;;;1.70;0.90;;;;;;;;;;6934861;28;20060;-88
2021/05/06 16:50:51;;;;;;;2.97;1.40;;;;;;;;;;6924017;28;20109;-85
2021/05/06 16:54:11;;;;;;;1.48;1.30;;;;;;;;;;6941473;28;20038;-87
2021/05/06 16:57:34;;;;;;;2.75;1.63;;;;;;;;;;6941599;28;20055;-86
2021/05/06 17:00:55;;;;;;;5.43;2.30;;;;;;;;;;6941081;28;20378;-86
2021/05/06 17:04:16;;;;;;;5.05;3.17;;;;;;;;;;6941987;28;20467;-85
2021/05/06 17:07:38;;;;;;;10.55;3.40;;;;;;;;;;6928774;28;20108;-86
2021/05/06 17:10:59;;;;;;;10.55;4.38;;;;;;;;;;6929525;28;20029;-85
2021/05/06 17:14:19;;;;;;;10.95;4.68;;;;;;;;;;6929445;28;20116;-85
2021/05/06 17:17:40;;;;;;;10.27;4.10;;;;;;;;;;6946018;28;20030;-87
2021/05/06 17:21:00;;;;;;;14.75;4.45;;;;;;;;;;6926955;28;20122;-87
2021/05/06 17:24:23;;;;;;;12.05;5.10;;;;;;;;;;6928770;28;20461;-87
2021/05/06 17:27:44;;;;;;;8.45;3.97;;;;;;;;;;6946289;28;20470;-86
2021/05/06 17:31:04;;;;;;;10.48;3.97;;;;;;;;;;6945867;28;20045;-86
2021/05/06 17:34:25;;;;;;;15.20;3.78;;;;;;;;;;6946413;28;20495;-87
2021/05/06 17:37:45;;;;;;;8.32;3.78;;;;;;;;;;6946392;28;20073;-88
2021/05/06 17:41:06;;;;;;;12.25;3.78;;;;;;;;;;6929535;28;20037;-88
2021/05/06 17:44:26;;;;;;;9.60;3.97;;;;;;;;;;6945760;28;20450;-90
2021/05/06 17:47:47;;;;;;;11.88;3.60;;;;;;;;;;6945663;28;20485;-88
2021/05/06 17:51:07;;;;;;;8.82;3.05;;;;;;;;;;6945851;28;20038;-88
2021/05/06 17:54:28;;;;;;;8.50;3.17;;;;;;;;;;6928335;28;20489;-88
2021/05/06 17:57:49;;;;;;;5.10;3.20;;;;;;;;;;6928691;28;20072;-87
2021/05/06 18:01:13;;;;;;;9.65;3.65;;;;;;;;;;6944927;28;20036;-88
2021/05/06 18:04:34;;;;;;;6.65;3.13;;;;;;;;;;6945950;28;20029;-88
2021/05/06 18:07:54;;;;;;;9.23;3.90;;;;;;;;;;6927744;28;20028;-87
2021/05/06 18:14:44;;;;;;;10.13;3.28;;;;;;;;;;6945365;28;20039;-88
2021/05/06 18:18:04;;;;;;;9.60;3.67;;;;;;;;;;6942358;28;20041;-88
2021/05/06 18:21:25;;;;;;;15.43;3.58;;;;;;;;;;6945438;28;20060;-89
2021/05/06 18:24:46;;;;;;;14.98;3.33;;;;;;;;;;6925773;28;20560;-89
2021/05/06 18:28:11;;;;;;;11.77;3.38;;;;;;;;;;6940233;28;20037;-88
2021/05/06 18:31:32;;;;;;;5.63;2.67;;;;;;;;;;6942311;28;20025;-88
2021/05/06 18:34:52;;;;;;;11.70;3.58;;;;;;;;;;6926647;28;20044;-89
2021/05/06 18:38:14;;;;;;;11.55;3.50;;;;;;;;;;6945356;28;20060;-87
2021/05/06 18:41:35;;;;;;;9.77;3.28;;;;;;;;;;6930734;28;20032;-89
2021/05/06 18:44:55;;;;;;;12.57;3.33;;;;;;;;;;6929999;28;20128;-88
2021/05/06 18:48:15;;;;;;;12.05;2.70;;;;;;;;;;6926767;28;20029;-88
2021/05/06 18:51:36;;;;;;;6.70;2.42;;;;;;;;;;6927436;28;20057;-88
2021/05/06 18:54:56;;;;;;;9.98;2.55;;;;;;;;;;6926640;28;20036;-89
2021/05/06 18:58:17;;;;;;;4.13;2.40;;;;;;;;;;6943865;28;20037;-89
2021/05/06 19:01:37;;;;;;;4.78;2.33;;;;;;;;;;6926006;28;20039;-91
2021/05/06 19:05:02;;;;;;;8.35;3.22;;;;;;;;;;6926408;28;20030;-90
2021/05/06 19:08:22;;;;;;;9.88;2.58;;;;;;;;;;6923328;28;20033;-90
2021/05/06 19:11:43;;;;;;;5.70;2.40;;;;;;;;;;6943335;28;20042;-89
2021/05/06 19:15:05;;;;;;;8.25;2.25;;;;;;;;;;6943432;28;20029;-89
2021/05/06 19:18:26;;;;;;;11.75;2.42;;;;;;;;;;6944273;28;20121;-89
2021/05/06 19:21:47;;;;;;;4.32;2.17;;;;;;;;;;6943634;28;20033;-89
2021/05/06 19:25:07;;;;;;;12.98;2.42;;;;;;;;;;6943820;28;20060;-89
2021/05/06 19:28:28;;;;;;;10.05;2.58;;;;;;;;;;6943058;28;20156;-89
2021/05/06 19:31:48;;;;;;;9.90;2.38;;;;;;;;;;6924614;28;20029;-89
2021/05/06 19:35:10;;;;;;;5.18;1.90;;;;;;;;;;6942695;28;20052;-89
2021/05/06 19:38:31;;;;;;;7.00;2.33;;;;;;;;;;6922623;28;20069;-89
2021/05/06 19:41:51;;;;;;;6.38;2.47;;;;;;;;;;6925794;28;20041;-89
2021/05/06 19:45:17;;;;;;;6.15;2.03;;;;;;;;;;6942353;28;20362;-89
2021/05/06 19:48:37;;;;;;;3.38;1.88;;;;;;;;;;6941905;28;20439;-89
2021/05/06 19:51:58;;;;;;;9.02;2.55;;;;;;;;;;6925096;28;20065;-90
2021/05/06 19:55:18;;;;;;;5.57;1.73;;;;;;;;;;6924528;28;20386;-89
2021/05/06 19:58:39;;;;;;;7.68;2.10;;;;;;;;;;6941954;28;20375;-89
2021/05/06 20:02:00;;;;;;;3.95;2.13;;;;;;;;;;6942312;28;20029;-89
2021/05/06 20:05:21;;;;;;;9.52;2.10;;;;;;;;;;6943077;28;20526;-87
2021/05/06 20:08:42;;;;;;;6.32;1.90;;;;;;;;;;6942217;28;20075;-88
2021/05/06 20:12:02;;;;;;;3.88;1.95;;;;;;;;;;6940518;28;20112;-89
2021/05/06 20:15:23;;;;;;;6.07;2.20;;;;;;;;;;6922483;28;20482;-89
2021/05/06 20:18:44;;;;;;;5.80;1.85;;;;;;;;;;6942261;28;20431;-89
2021/05/06 20:22:05;;;;;;;7.65;1.77;;;;;;;;;;6942827;28;20033;-88
2021/05/06 20:25:26;;;;;;;11.10;2.50;;;;;;;;;;6942711;28;20030;-88
2021/05/06 20:28:46;;;;;;;3.90;1.77;;;;;;;;;;6924646;28;20064;-88
2021/05/06 20:32:09;;;;;;;3.95;1.83;;;;;;;;;;6925363;28;20025;-88
2021/05/06 20:35:30;;;;;;;5.05;1.88;;;;;;;;;;6908999;28;20037;-88
2021/05/06 20:38:50;;;;;;;9.50;2.38;;;;;;;;;;6942975;28;20044;-89
2021/05/06 20:42:13;;;;;;;4.55;2.05;;;;;;;;;;6939842;28;20116;-89
2021/05/06 20:45:34;;;;;;;4.50;2.13;;;;;;;;;;6947929;28;20026;-88
2021/05/06 20:48:54;;;;;;;9.45;2.17;;;;;;;;;;6947834;28;20152;-89
2021/05/06 20:52:20;;;;;;;4.65;2.30;;;;;;;;;;6929311;28;20065;-89
2021/05/06 20:55:40;;;;;;;10.43;2.30;;;;;;;;;;6929496;28;20072;-88
2021/05/06 20:59:01;;;;;;;9.85;2.22;;;;;;;;;;6946571;28;20025;-89
2021/05/06 21:02:23;;;;;;;4.93;2.13;;;;;;;;;;6947823;28;20030;-88
2021/05/06 21:05:43;;;;;;;5.65;2.00;;;;;;;;;;6923787;28;20029;-89
2021/05/06 21:09:04;;;;;;;4.68;1.80;;;;;;;;;;6946797;28;20079;-91
2021/05/06 21:12:24;;;;;;;5.47;1.58;;;;;;;;;;6946323;28;20052;-90
2021/05/06 21:15:45;;;;;;;6.28;1.73;;;;;;;;;;6928835;28;20086;-90
2021/05/06 21:19:05;;;;;;;5.45;1.50;;;;;;;;;;6946736;28;20041;-90
2021/05/06 21:22:25;;;;;;;5.90;1.70;;;;;;;;;;6947604;28;20156;-86
2021/05/06 21:25:46;;;;;;;9.68;2.75;;;;;;;;;;6947171;28;20414;-86
2021/05/06 21:29:15;;;;;;;12.73;2.88;;;;;;;;;;6945891;28;20144;-86
2021/05/06 21:32:35;;;;;;;12.18;2.50;;;;;;;;;;6925725;28;20029;-85
2021/05/06 21:35:56;;;;;;;6.90;1.88;;;;;;;;;;6945883;28;20049;-85
2021/05/06 21:39:17;;;;;;;8.90;2.28;;;;;;;;;;6947197;28;20108;-87
2021/05/06 21:42:38;;;;;;;9.23;2.92;;;;;;;;;;6946135;28;20037;-81
2021/05/06 21:46:00;;;;;;;15.70;2.70;;;;;;;;;;6940175;28;20057;-83
2021/05/06 21:49:20;;;;;;;10.65;2.60;;;;;;;;;;6942327;28;20114;-81
2021/05/06 21:52:41;;;;;;;8.43;2.65;;;;;;;;;;6926218;28;20033;-86
2021/05/06 21:56:02;;;;;;;19.55;2.63;;;;;;;;;;6943234;28;20121;-82
2021/05/06 21:59:22;;;;;;;13.57;2.53;;;;;;;;;;6940178;28;20053;-83
2021/05/06 22:02:43;;;;;;;15.95;2.75;;;;;;;;;;6935953;28;20060;-84
2021/05/06 22:06:03;;;;;;;13.82;2.70;;;;;;;;;;6936249;28;20112;-81
2021/05/06 22:09:26;;;;;;;13.25;2.25;;;;;;;;;;6936605;28;20056;-82
2021/05/06 22:12:46;;;;;;;12.20;2.17;;;;;;;;;;6934291;28;20038;-82
2021/05/06 22:16:08;;;;;;;11.48;2.42;;;;;;;;;;6924782;28;20037;-81
2021/05/06 22:19:28;;;;;;;11.45;2.67;;;;;;;;;;6932847;28;20038;-82
2021/05/06 22:22:49;;;;;;;15.77;2.25;;;;;;;;;;6929787;28;20052;-82
2021/05/06 22:26:09;;;;;;;8.18;2.28;;;;;;;;;;6935103;28;20114;-81
2021/05/06 22:29:30;;;;;;;10.00;2.03;;;;;;;;;;6926634;28;20487;-81
2021/05/06 22:32:50;;;;;;;8.95;2.28;;;;;;;;;;6944000;28;20387;-81
2021/05/06 22:36:11;;;;;;;14.07;2.10;;;;;;;;;;6944711;28;20109;-81
2021/05/06 22:39:31;;;;;;;6.93;2.60;;;;;;;;;;6944577;28;20467;-82
2021/05/06 22:42:53;;;;;;;11.05;2.28;;;;;;;;;;6945210;28;20430;-81
2021/05/06 22:46:14;;;;;;;12.23;2.17;;;;;;;;;;6927277;28;20374;-82
2021/05/06 22:49:35;;;;;;;5.63;2.05;;;;;;;;;;6945012;28;20029;-82
2021/05/06 22:52:55;;;;;;;6.22;2.40;;;;;;;;;;6944734;28;20364;-82
2021/05/06 22:56:15;;;;;;;6.20;2.25;;;;;;;;;;6943165;28;20075;-84
2021/05/06 22:59:36;;;;;;;7.40;2.20;;;;;;;;;;6943674;28;20072;-82
2021/05/06 23:02:56;;;;;;;10.40;2.65;;;;;;;;;;6943934;28;20044;-81
2021/05/06 23:06:17;;;;;;;10.93;2.28;;;;;;;;;;6926106;28;20060;-82
2021/05/06 23:09:37;;;;;;;6.20;1.67;;;;;;;;;;6944252;28;20363;-82
2021/05/06 23:12:58;;;;;;;7.32;2.03;;;;;;;;;;6926278;28;20087;-85
2021/05/06 23:16:18;;;;;;;11.75;2.42;;;;;;;;;;6944031;28;20064;-82
2021/05/06 23:19:39;;;;;;;12.32;2.25;;;;;;;;;;6943934;28;20029;-83
2021/05/06 23:22:59;;;;;;;7.35;2.28;;;;;;;;;;6944501;28;20044;-83
2021/05/06 23:26:19;;;;;;;7.75;2.28;;;;;;;;;;6944181;28;20025;-83
2021/05/06 23:29:40;;;;;;;11.93;2.00;;;;;;;;;;6943610;28;20103;-83